TKJ7RX LTDB-LTAC
Flight info
| Callsign | TKJ7RX |
|---|---|
| Flight time | N/A |
| Altitude | 34000 |
| Route | KEMER UW75 BAKIR |
| Aircraft | B738/M-SDE2E3FGHIRWXY/LB1 |
Departure
| Time | 2026-05-04 19:27 |
|---|---|
| Airport | Çukurova International Airport (LTDB) |
Arrival
| Time | N/A |
|---|---|
| Airport | Esenboğa International Airport (LTAC) |
| Time | Latitude | Longitude | Altitude | Speed | Heading |
|---|---|---|---|---|---|
| 2026-05-04 18:50 | 36.90087 | 35.06955 | -13 ft | 0 kts | 301° |
| 2026-05-04 19:15 | 36.90080 | 35.06971 | 52 ft | 4 kts | 293° |
| 2026-05-04 19:16 | 36.90074 | 35.07002 | 56 ft | 4 kts | 259° |
| 2026-05-04 19:16 | 36.90084 | 35.07026 | 51 ft | 2 kts | 212° |
| 2026-05-04 19:16 | 36.90086 | 35.07027 | 51 ft | 1 kts | 211° |
| 2026-05-04 19:20 | 36.90075 | 35.07019 | 55 ft | 6 kts | 211° |
| 2026-05-04 19:20 | 36.90030 | 35.06985 | 55 ft | 8 kts | 211° |
| 2026-05-04 19:20 | 36.89981 | 35.06947 | 54 ft | 8 kts | 211° |
| 2026-05-04 19:21 | 36.89927 | 35.06905 | 53 ft | 12 kts | 212° |
| 2026-05-04 19:21 | 36.89830 | 35.06832 | 55 ft | 19 kts | 211° |
| 2026-05-04 19:21 | 36.89716 | 35.06746 | 55 ft | 19 kts | 211° |
| 2026-05-04 19:21 | 36.89616 | 35.06669 | 55 ft | 10 kts | 211° |
| 2026-05-04 19:22 | 36.89554 | 35.06651 | 53 ft | 10 kts | 143° |
| 2026-05-04 19:22 | 36.89515 | 35.06723 | 53 ft | 11 kts | 121° |
| 2026-05-04 19:22 | 36.89463 | 35.06828 | 55 ft | 18 kts | 121° |
| 2026-05-04 19:22 | 36.89401 | 35.06957 | 52 ft | 15 kts | 123° |
| 2026-05-04 19:23 | 36.89311 | 35.06963 | 54 ft | 16 kts | 211° |
| 2026-05-04 19:23 | 36.89201 | 35.06880 | 51 ft | 22 kts | 211° |
| 2026-05-04 19:23 | 36.89056 | 35.06769 | 53 ft | 26 kts | 211° |
| 2026-05-04 19:23 | 36.88895 | 35.06647 | 51 ft | 27 kts | 212° |
| 2026-05-04 19:24 | 36.88742 | 35.06529 | 51 ft | 25 kts | 211° |
| 2026-05-04 19:24 | 36.88600 | 35.06422 | 49 ft | 23 kts | 211° |
| 2026-05-04 19:24 | 36.88465 | 35.06318 | 51 ft | 22 kts | 212° |
| 2026-05-04 19:24 | 36.88334 | 35.06218 | 51 ft | 20 kts | 211° |
| 2026-05-04 19:25 | 36.88231 | 35.06141 | 50 ft | 17 kts | 208° |
| 2026-05-04 19:25 | 36.88160 | 35.06171 | 51 ft | 11 kts | 108° |
| 2026-05-04 19:25 | 36.88178 | 35.06257 | 52 ft | 10 kts | 63° |
| 2026-05-04 19:25 | 36.88200 | 35.06336 | 53 ft | 10 kts | 99° |
| 2026-05-04 19:26 | 36.88219 | 35.06409 | 51 ft | 11 kts | 33° |
| 2026-05-04 19:26 | 36.88303 | 35.06474 | 49 ft | 42 kts | 31° |
| 2026-05-04 19:26 | 36.88779 | 35.06835 | 47 ft | 115 kts | 31° |
| 2026-05-04 19:26 | 36.89636 | 35.07482 | 71 ft | 169 kts | 30° |
| 2026-05-04 19:27 | 36.90652 | 35.08248 | 747 ft | 172 kts | 31° |
| 2026-05-04 19:27 | 36.91725 | 35.09066 | 1323 ft | 190 kts | 31° |
| 2026-05-04 19:27 | 36.92867 | 35.09943 | 2026 ft | 198 kts | 31° |
| 2026-05-04 19:27 | 36.94150 | 35.10926 | 2172 ft | 231 kts | 31° |
| 2026-05-04 19:28 | 36.95537 | 35.11974 | 2830 ft | 233 kts | 31° |
| 2026-05-04 19:28 | 36.96942 | 35.12944 | 3690 ft | 229 kts | 18° |
| 2026-05-04 19:28 | 36.98513 | 35.13042 | 4299 ft | 235 kts | 342° |
| 2026-05-04 19:28 | 37.00079 | 35.12181 | 4557 ft | 258 kts | 330° |
| 2026-05-04 19:29 | 37.01715 | 35.11102 | 5073 ft | 270 kts | 330° |
| 2026-05-04 19:29 | 37.03389 | 35.09984 | 5798 ft | 275 kts | 329° |
| 2026-05-04 19:29 | 37.05093 | 35.08850 | 6559 ft | 279 kts | 329° |
| 2026-05-04 19:29 | 37.06800 | 35.07718 | 7311 ft | 283 kts | 329° |
| 2026-05-04 19:30 | 37.08575 | 35.06546 | 8112 ft | 286 kts | 329° |
| 2026-05-04 19:30 | 37.10350 | 35.05378 | 8919 ft | 290 kts | 329° |
| 2026-05-04 19:30 | 37.12150 | 35.04196 | 9718 ft | 295 kts | 329° |
| 2026-05-04 19:30 | 37.13984 | 35.02991 | 10375 ft | 304 kts | 329° |
| 2026-05-04 19:31 | 37.15937 | 35.01706 | 10578 ft | 330 kts | 329° |
| 2026-05-04 19:31 | 37.18040 | 35.00322 | 10770 ft | 353 kts | 330° |
| 2026-05-04 19:31 | 37.20249 | 34.98871 | 11078 ft | 370 kts | 330° |
| 2026-05-04 19:31 | 37.22551 | 34.97363 | 11723 ft | 376 kts | 329° |
| 2026-05-04 19:32 | 37.24875 | 34.95840 | 12542 ft | 378 kts | 329° |
| 2026-05-04 19:32 | 37.27220 | 34.94297 | 13301 ft | 383 kts | 329° |
| 2026-05-04 19:32 | 37.29595 | 34.92736 | 14032 ft | 387 kts | 328° |
| 2026-05-04 19:32 | 37.31987 | 34.91166 | 14838 ft | 389 kts | 329° |
| 2026-05-04 19:33 | 37.34400 | 34.89578 | 15583 ft | 394 kts | 328° |
| 2026-05-04 19:33 | 37.36835 | 34.87972 | 16332 ft | 397 kts | 328° |
| 2026-05-04 19:33 | 37.39300 | 34.86343 | 17042 ft | 402 kts | 328° |
| 2026-05-04 19:33 | 37.41785 | 34.84701 | 17752 ft | 406 kts | 328° |
| 2026-05-04 19:34 | 37.44293 | 34.83045 | 18413 ft | 409 kts | 328° |
| 2026-05-04 19:34 | 37.46824 | 34.81371 | 19012 ft | 412 kts | 328° |
| 2026-05-04 19:34 | 37.49377 | 34.79681 | 19544 ft | 418 kts | 328° |
| 2026-05-04 19:34 | 37.51961 | 34.77970 | 20150 ft | 421 kts | 328° |
| 2026-05-04 19:35 | 37.54564 | 34.76246 | 20741 ft | 424 kts | 328° |
| 2026-05-04 19:35 | 37.57185 | 34.74508 | 21295 ft | 427 kts | 328° |
| 2026-05-04 19:35 | 37.59792 | 34.72776 | 21842 ft | 431 kts | 328° |
| 2026-05-04 19:35 | 37.62418 | 34.70939 | 22414 ft | 432 kts | 325° |
| 2026-05-04 19:36 | 37.65006 | 34.68988 | 22957 ft | 434 kts | 324° |
| 2026-05-04 19:36 | 37.67590 | 34.66989 | 23506 ft | 438 kts | 324° |
| 2026-05-04 19:36 | 37.70193 | 34.64972 | 23929 ft | 441 kts | 324° |
| 2026-05-04 19:36 | 37.72822 | 34.62948 | 24388 ft | 443 kts | 324° |
| 2026-05-04 19:37 | 37.75467 | 34.60927 | 24816 ft | 446 kts | 325° |
| 2026-05-04 19:37 | 37.78130 | 34.58899 | 25239 ft | 448 kts | 325° |
| 2026-05-04 19:37 | 37.80812 | 34.56860 | 25645 ft | 451 kts | 325° |
| 2026-05-04 19:37 | 37.83513 | 34.54805 | 26025 ft | 454 kts | 325° |
| 2026-05-04 19:38 | 37.86223 | 34.52742 | 26403 ft | 456 kts | 325° |
| 2026-05-04 19:38 | 37.88946 | 34.50666 | 26782 ft | 458 kts | 325° |
| 2026-05-04 19:38 | 37.91686 | 34.48583 | 27142 ft | 461 kts | 325° |
| 2026-05-04 19:38 | 37.94453 | 34.46507 | 27499 ft | 464 kts | 326° |
| 2026-05-04 19:39 | 37.97242 | 34.44425 | 27793 ft | 466 kts | 326° |
| 2026-05-04 19:39 | 38.00046 | 34.42333 | 28119 ft | 469 kts | 327° |
| 2026-05-04 19:39 | 38.02869 | 34.40224 | 28447 ft | 471 kts | 327° |
| 2026-05-04 19:39 | 38.05690 | 34.38112 | 28925 ft | 470 kts | 327° |
| 2026-05-04 19:40 | 38.08504 | 34.36003 | 29465 ft | 468 kts | 326° |
| 2026-05-04 19:40 | 38.11300 | 34.33904 | 29988 ft | 466 kts | 326° |
| 2026-05-04 19:40 | 38.14090 | 34.31805 | 30338 ft | 466 kts | 326° |
| 2026-05-04 19:40 | 38.16848 | 34.29727 | 30650 ft | 467 kts | 326° |
| 2026-05-04 19:41 | 38.19642 | 34.27620 | 30987 ft | 467 kts | 326° |
| 2026-05-04 19:41 | 38.22436 | 34.25512 | 31367 ft | 466 kts | 326° |
| 2026-05-04 19:41 | 38.25221 | 34.23408 | 31735 ft | 466 kts | 327° |
| 2026-05-04 19:41 | 38.28013 | 34.21296 | 31981 ft | 468 kts | 327° |
| 2026-05-04 19:42 | 38.30821 | 34.19174 | 32311 ft | 468 kts | 327° |
| 2026-05-04 19:42 | 38.33611 | 34.17062 | 32752 ft | 465 kts | 327° |
| 2026-05-04 19:42 | 38.36398 | 34.14949 | 33045 ft | 466 kts | 327° |
| 2026-05-04 19:42 | 38.39190 | 34.12831 | 33304 ft | 467 kts | 327° |
| 2026-05-04 19:43 | 38.41981 | 34.10711 | 33559 ft | 466 kts | 327° |
| 2026-05-04 19:43 | 38.44730 | 34.08621 | 33817 ft | 464 kts | 327° |
| 2026-05-04 19:43 | 38.47509 | 34.06507 | 33866 ft | 467 kts | 327° |
| 2026-05-04 19:44 | 38.53087 | 34.02258 | 33874 ft | 465 kts | 328° |
| 2026-05-04 19:44 | 38.58618 | 33.98010 | 33874 ft | 463 kts | 327° |
| 2026-05-04 19:45 | 38.64125 | 33.93762 | 33882 ft | 461 kts | 328° |
| 2026-05-04 19:45 | 38.69613 | 33.89522 | 33881 ft | 459 kts | 327° |
| 2026-05-04 19:46 | 38.75081 | 33.85293 | 33872 ft | 458 kts | 327° |
| 2026-05-04 19:46 | 38.80536 | 33.81066 | 33879 ft | 458 kts | 327° |
| 2026-05-04 19:47 | 38.85992 | 33.76833 | 33879 ft | 458 kts | 328° |
| 2026-05-04 19:47 | 38.91453 | 33.72586 | 33887 ft | 459 kts | 328° |
| 2026-05-04 19:48 | 38.96912 | 33.68333 | 33882 ft | 459 kts | 328° |
| 2026-05-04 19:48 | 39.02370 | 33.64074 | 33889 ft | 458 kts | 328° |
| 2026-05-04 19:49 | 39.08077 | 33.60547 | 33592 ft | 462 kts | 344° |
| 2026-05-04 19:49 | 39.11255 | 33.59662 | 33344 ft | 461 kts | 349° |
| 2026-05-04 19:49 | 39.14407 | 33.58947 | 33081 ft | 458 kts | 350° |
| 2026-05-04 19:49 | 39.17499 | 33.58264 | 32827 ft | 456 kts | 350° |
| 2026-05-04 19:50 | 39.20626 | 33.57567 | 32577 ft | 455 kts | 350° |
| 2026-05-04 19:50 | 39.23741 | 33.56856 | 32309 ft | 454 kts | 350° |
| 2026-05-04 19:50 | 39.26851 | 33.56133 | 31461 ft | 456 kts | 350° |
| 2026-05-04 19:50 | 39.29975 | 33.55396 | 30709 ft | 456 kts | 351° |
| 2026-05-04 19:51 | 39.33100 | 33.54651 | 29901 ft | 458 kts | 351° |
| 2026-05-04 19:51 | 39.36243 | 33.53899 | 28825 ft | 459 kts | 351° |
| 2026-05-04 19:51 | 39.39382 | 33.53147 | 27868 ft | 459 kts | 351° |
| 2026-05-04 19:51 | 39.42522 | 33.52393 | 27038 ft | 457 kts | 351° |
| 2026-05-04 19:52 | 39.45623 | 33.51647 | 26357 ft | 451 kts | 351° |
| 2026-05-04 19:52 | 39.48689 | 33.50910 | 25695 ft | 446 kts | 352° |
| 2026-05-04 19:52 | 39.51730 | 33.50178 | 25032 ft | 442 kts | 352° |
| 2026-05-04 19:52 | 39.54732 | 33.49456 | 24387 ft | 438 kts | 352° |
| 2026-05-04 19:53 | 39.57681 | 33.48747 | 23749 ft | 434 kts | 352° |
| 2026-05-04 19:53 | 39.60678 | 33.48025 | 23010 ft | 431 kts | 352° |
| 2026-05-04 19:53 | 39.63615 | 33.47317 | 22295 ft | 427 kts | 352° |
| 2026-05-04 19:53 | 39.66467 | 33.46320 | 21638 ft | 426 kts | 338° |
| 2026-05-04 19:54 | 39.68935 | 33.44327 | 21042 ft | 424 kts | 320° |
| 2026-05-04 19:54 | 39.70820 | 33.41409 | 20577 ft | 421 kts | 301° |
| 2026-05-04 19:54 | 39.71871 | 33.37928 | 20333 ft | 410 kts | 282° |
| 2026-05-04 19:54 | 39.72014 | 33.34301 | 20062 ft | 399 kts | 262° |
| 2026-05-04 19:55 | 39.71253 | 33.30916 | 19871 ft | 385 kts | 242° |
| 2026-05-04 19:55 | 39.69705 | 33.28153 | 19717 ft | 378 kts | 221° |
| 2026-05-04 19:55 | 39.67537 | 33.26265 | 19584 ft | 375 kts | 201° |
| 2026-05-04 19:55 | 39.65030 | 33.25474 | 19437 ft | 371 kts | 180° |
| 2026-05-04 19:56 | 39.62495 | 33.25849 | 19298 ft | 366 kts | 162° |
| 2026-05-04 19:56 | 39.60150 | 33.27183 | 19118 ft | 376 kts | 142° |
| 2026-05-04 19:56 | 39.58413 | 33.29632 | 18969 ft | 364 kts | 118° |
| 2026-05-04 19:56 | 39.57575 | 33.32644 | 18819 ft | 351 kts | 98° |
| 2026-05-04 19:57 | 39.57588 | 33.35781 | 18672 ft | 354 kts | 79° |
| 2026-05-04 19:57 | 39.58409 | 33.38880 | 18555 ft | 374 kts | 62° |
| 2026-05-04 19:57 | 39.60012 | 33.41570 | 18407 ft | 383 kts | 43° |
| 2026-05-04 19:57 | 39.62300 | 33.43497 | 18298 ft | 402 kts | 25° |
| 2026-05-04 19:58 | 39.65000 | 33.44594 | 18143 ft | 411 kts | 11° |
| 2026-05-04 19:58 | 39.67827 | 33.44843 | 17978 ft | 410 kts | 1° |
| 2026-05-04 19:58 | 39.70667 | 33.44657 | 17804 ft | 408 kts | 357° |
| 2026-05-04 19:58 | 39.73486 | 33.44301 | 17613 ft | 407 kts | 354° |
| 2026-05-04 19:59 | 39.76292 | 33.43801 | 17411 ft | 406 kts | 353° |
| 2026-05-04 19:59 | 39.79090 | 33.43324 | 17220 ft | 405 kts | 355° |
| 2026-05-04 19:59 | 39.81857 | 33.42941 | 17033 ft | 405 kts | 356° |
| 2026-05-04 19:59 | 39.84658 | 33.42638 | 16843 ft | 404 kts | 357° |
| 2026-05-04 20:00 | 39.87451 | 33.42398 | 16610 ft | 391 kts | 358° |
| 2026-05-04 20:00 | 39.90089 | 33.42206 | 16284 ft | 379 kts | 359° |
| 2026-05-04 20:00 | 39.92673 | 33.42033 | 15934 ft | 363 kts | 359° |
| 2026-05-04 20:00 | 39.95131 | 33.41873 | 15578 ft | 346 kts | 359° |
| 2026-05-04 20:01 | 39.97490 | 33.41722 | 15182 ft | 334 kts | 359° |
| 2026-05-04 20:01 | 39.99784 | 33.41576 | 14703 ft | 326 kts | 359° |
| 2026-05-04 20:01 | 40.02027 | 33.41435 | 14198 ft | 319 kts | 360° |
| 2026-05-04 20:01 | 40.04160 | 33.41825 | 13971 ft | 303 kts | 23° |
| 2026-05-04 20:02 | 40.05882 | 33.43272 | 13817 ft | 291 kts | 48° |
| 2026-05-04 20:02 | 40.06902 | 33.45472 | 13663 ft | 281 kts | 74° |
| 2026-05-04 20:02 | 40.07046 | 33.47955 | 13490 ft | 273 kts | 101° |
| 2026-05-04 20:02 | 40.06306 | 33.50179 | 13311 ft | 267 kts | 128° |
| 2026-05-04 20:03 | 40.04873 | 33.51652 | 13139 ft | 263 kts | 156° |
| 2026-05-04 20:03 | 40.03086 | 33.52043 | 12979 ft | 264 kts | 185° |
| 2026-05-04 20:03 | 40.01358 | 33.51273 | 12828 ft | 267 kts | 213° |
| 2026-05-04 20:03 | 40.00101 | 33.49509 | 12668 ft | 269 kts | 242° |
| 2026-05-04 20:04 | 39.99593 | 33.47141 | 12138 ft | 280 kts | 270° |
| 2026-05-04 20:04 | 40.00030 | 33.44729 | 11632 ft | 278 kts | 299° |
| 2026-05-04 20:04 | 40.01196 | 33.42763 | 11208 ft | 273 kts | 316° |
| 2026-05-04 20:04 | 40.02579 | 33.41060 | 10779 ft | 276 kts | 319° |
| 2026-05-04 20:05 | 40.04017 | 33.39362 | 10341 ft | 281 kts | 319° |
| 2026-05-04 20:05 | 40.05483 | 33.37631 | 9916 ft | 285 kts | 319° |
| 2026-05-04 20:05 | 40.06940 | 33.35896 | 9456 ft | 282 kts | 319° |
| 2026-05-04 20:05 | 40.08376 | 33.34174 | 8978 ft | 277 kts | 318° |
| 2026-05-04 20:06 | 40.09760 | 33.32503 | 8557 ft | 263 kts | 319° |
| 2026-05-04 20:06 | 40.11072 | 33.30912 | 8168 ft | 250 kts | 319° |
| 2026-05-04 20:06 | 40.12302 | 33.29417 | 7883 ft | 234 kts | 318° |
| 2026-05-04 20:06 | 40.13443 | 33.28029 | 7708 ft | 217 kts | 319° |
| 2026-05-04 20:07 | 40.14517 | 33.26721 | 7539 ft | 205 kts | 318° |
| 2026-05-04 20:07 | 40.15535 | 33.25478 | 7361 ft | 196 kts | 318° |
| 2026-05-04 20:07 | 40.16523 | 33.24274 | 7207 ft | 193 kts | 318° |
| 2026-05-04 20:07 | 40.17502 | 33.23080 | 7065 ft | 192 kts | 319° |
| 2026-05-04 20:08 | 40.18481 | 33.21886 | 6933 ft | 193 kts | 318° |
| 2026-05-04 20:08 | 40.19460 | 33.20692 | 6816 ft | 190 kts | 319° |
| 2026-05-04 20:08 | 40.20418 | 33.19521 | 6705 ft | 188 kts | 319° |